createdAt,value
2022-08-28T00:03:38.194Z,9.80
2022-08-28T00:09:01.167Z,10.03
2022-08-28T00:14:25.291Z,10.80
2022-08-28T00:19:48.711Z,10.23
2022-08-28T00:25:12.661Z,12.33
2022-08-28T00:30:49.786Z,13.43
2022-08-28T00:36:13.734Z,11.60
2022-08-28T00:41:37.134Z,12.37
2022-08-28T00:47:05.176Z,12.03
2022-08-28T00:52:29.064Z,11.73
2022-08-28T00:58:07.354Z,11.63
2022-08-28T01:03:29.646Z,12.83
2022-08-28T01:08:54.665Z,11.83
2022-08-28T01:14:22.600Z,12.23
2022-08-28T01:19:54.683Z,12.33
2022-08-28T01:25:24.788Z,11.87
2022-08-28T01:36:58.537Z,13.57
2022-08-28T01:42:22.571Z,12.85
2022-08-28T01:47:45.427Z,13.18
2022-08-28T01:53:07.845Z,13.43
2022-08-28T01:58:37.429Z,13.17
2022-08-28T02:03:56.825Z,13.03
2022-08-28T02:09:20.261Z,12.87
2022-08-28T02:14:42.501Z,13.73
2022-08-28T02:20:04.936Z,13.53
2022-08-28T02:25:28.315Z,13.20
2022-08-28T02:30:51.111Z,13.80
2022-08-28T02:36:14.332Z,13.85
2022-08-28T02:41:36.582Z,14.27
2022-08-28T02:46:58.895Z,13.88
2022-08-28T02:52:22.668Z,14.17
2022-08-28T02:57:45.772Z,14.53
2022-08-28T03:03:08.502Z,13.50
2022-08-28T03:08:32.605Z,14.00
2022-08-28T03:13:56.084Z,14.23
2022-08-28T03:19:18.272Z,13.30
2022-08-28T03:24:41.621Z,14.07
2022-08-28T03:30:03.833Z,13.18
2022-08-28T03:35:27.110Z,14.25
2022-08-28T03:40:53.007Z,12.50
2022-08-28T03:46:23.867Z,13.43
2022-08-28T03:51:48.592Z,13.67
2022-08-28T03:57:11.406Z,13.17
2022-08-28T04:02:34.242Z,13.90
2022-08-28T04:07:56.613Z,13.38
2022-08-28T04:13:19.833Z,12.53
2022-08-28T04:18:43.396Z,13.83
2022-08-28T04:24:09.697Z,13.70
2022-08-28T04:29:32.169Z,13.83
2022-08-28T04:34:56.215Z,14.85
2022-08-28T04:40:20.048Z,14.23
2022-08-28T04:45:46.021Z,14.40
2022-08-28T04:51:10.508Z,14.80
2022-08-28T04:56:33.735Z,14.77
2022-08-28T05:01:56.149Z,14.58
2022-08-28T05:07:18.408Z,14.00
2022-08-28T05:12:44.089Z,14.77
2022-08-28T05:18:06.263Z,17.10
2022-08-28T05:23:29.401Z,18.03
2022-08-28T05:28:53.284Z,19.97
2022-08-28T05:34:16.548Z,25.97
2022-08-28T05:39:38.773Z,24.17
2022-08-28T05:45:01.731Z,21.33
2022-08-28T05:50:25.419Z,21.30
2022-08-28T05:55:51.648Z,21.77
2022-08-28T06:01:19.815Z,21.33
2022-08-28T06:06:44.301Z,23.20
2022-08-28T06:12:07.992Z,22.70
2022-08-28T06:17:31.457Z,21.50
2022-08-28T06:22:55.363Z,21.57
2022-08-28T06:28:18.489Z,20.45
2022-08-28T06:33:42.701Z,18.98
2022-08-28T06:39:05.453Z,18.48
2022-08-28T06:44:33.578Z,16.70
2022-08-28T06:49:56.606Z,16.65
2022-08-28T06:55:19.127Z,16.42
2022-08-28T07:00:42.533Z,16.70
2022-08-28T07:06:07.357Z,17.27
2022-08-28T07:11:37.357Z,16.35
2022-08-28T07:17:01.262Z,14.85
2022-08-28T07:22:23.477Z,14.18
2022-08-28T07:27:45.706Z,14.05
2022-08-28T07:33:07.912Z,15.48
2022-08-28T07:38:30.615Z,13.60
2022-08-28T07:44:10.783Z,14.78
2022-08-28T07:49:37.085Z,14.47
2022-08-28T07:54:59.445Z,14.60
2022-08-28T08:00:23.082Z,13.68
2022-08-28T08:05:45.347Z,13.55
2022-08-28T08:11:21.113Z,13.08
2022-08-28T08:16:47.956Z,14.53
2022-08-28T08:22:10.136Z,13.58
2022-08-28T08:27:33.516Z,13.72
2022-08-28T08:32:56.955Z,12.37
2022-08-28T08:38:21.190Z,12.43
2022-08-28T08:43:47.456Z,12.65
2022-08-28T08:49:12.660Z,12.58
2022-08-28T08:54:36.492Z,15.72
2022-08-28T08:59:59.356Z,12.20
2022-08-28T09:05:30.108Z,10.63
2022-08-28T09:11:01.059Z,9.85
2022-08-28T09:16:31.823Z,11.18
2022-08-28T09:21:57.587Z,12.10
2022-08-28T09:27:30.773Z,12.18
2022-08-28T09:33:05.347Z,13.43
2022-08-28T09:38:44.677Z,12.55
2022-08-28T09:44:06.927Z,13.10
2022-08-28T09:49:43.139Z,11.85
2022-08-28T09:55:07.860Z,11.57
2022-08-28T10:00:31.120Z,11.03
2022-08-28T10:06:06.747Z,11.78
2022-08-28T10:11:42.595Z,10.72
2022-08-28T10:17:12.418Z,10.65
2022-08-28T10:22:47.773Z,9.33
2022-08-28T10:28:37.124Z,8.88
2022-08-28T10:34:47.307Z,11.97
2022-08-28T10:40:25.547Z,9.73
2022-08-28T10:45:52.214Z,9.93
2022-08-28T10:51:35.460Z,9.43
2022-08-28T10:57:00.132Z,9.90
2022-08-28T11:02:26.612Z,9.13
2022-08-28T11:07:55.856Z,8.98
2022-08-28T11:13:19.823Z,8.65
2022-08-28T11:18:51.055Z,8.25
2022-08-28T11:30:36.662Z,7.80
2022-08-28T11:36:04.020Z,7.80
2022-08-28T11:42:06.381Z,7.20
2022-08-28T11:47:55.913Z,7.80
2022-08-28T11:58:50.898Z,7.63
2022-08-28T12:04:17.813Z,8.57
2022-08-28T12:10:05.123Z,9.00
2022-08-28T12:15:43.300Z,9.30
2022-08-28T12:32:25.199Z,11.13
2022-08-28T12:38:03.720Z,11.60
2022-08-28T12:43:34.682Z,11.93
2022-08-28T12:49:16.741Z,11.38
2022-08-28T12:54:40.094Z,11.60
2022-08-28T13:00:07.861Z,12.63
2022-08-28T13:05:40.301Z,11.10
2022-08-28T13:11:14.219Z,11.07
2022-08-28T13:16:55.479Z,11.60
2022-08-28T13:22:40.614Z,10.32
2022-08-28T13:28:20.200Z,11.27
2022-08-28T13:33:44.244Z,11.97
2022-08-28T13:39:06.973Z,11.87
2022-08-28T13:44:42.692Z,11.53
2022-08-28T13:50:06.384Z,11.48
2022-08-28T13:55:38.756Z,10.93
2022-08-28T14:01:03.547Z,11.77
2022-08-28T14:06:31.823Z,11.83
2022-08-28T14:11:56.525Z,11.77
2022-08-28T14:17:21.960Z,11.37
2022-08-28T14:22:44.242Z,10.80
2022-08-28T14:28:06.425Z,11.07
2022-08-28T14:33:29.258Z,10.43
2022-08-28T14:38:54.711Z,11.53
2022-08-28T14:44:17.824Z,10.20
2022-08-28T14:49:41.096Z,9.60
2022-08-28T14:55:03.610Z,10.10
2022-08-28T15:00:26.888Z,10.03
2022-08-28T15:05:49.741Z,9.53
2022-08-28T15:16:52.727Z,9.47
2022-08-28T15:22:15.153Z,9.43
2022-08-28T15:27:39.855Z,9.20
2022-08-28T15:33:02.772Z,9.23
2022-08-28T15:38:25.550Z,8.90
2022-08-28T15:43:48.023Z,8.00
2022-08-28T15:49:12.798Z,7.40
2022-08-28T15:54:37.209Z,8.30
2022-08-28T16:00:00.354Z,9.30
2022-08-28T16:05:26.941Z,7.13
2022-08-28T16:10:50.139Z,7.57
2022-08-28T16:16:12.601Z,7.12
2022-08-28T16:21:35.249Z,6.78
2022-08-28T16:26:57.944Z,6.87
2022-08-28T16:32:20.373Z,6.80
2022-08-28T16:37:42.878Z,6.62
2022-08-28T16:43:07.441Z,7.12
2022-08-28T16:48:31.094Z,6.45
2022-08-28T16:53:53.922Z,6.67
2022-08-28T16:59:23.233Z,6.83
2022-08-28T17:04:44.910Z,6.47
2022-08-28T17:10:09.361Z,7.13
2022-08-28T17:15:31.767Z,6.47
2022-08-28T17:21:12.007Z,6.90
2022-08-28T17:26:35.221Z,6.72
2022-08-28T17:31:57.612Z,7.53
2022-08-28T17:37:21.194Z,6.30
2022-08-28T17:42:44.957Z,5.75
2022-08-28T17:48:07.891Z,3.92
2022-08-28T17:53:30.852Z,4.33
2022-08-28T17:58:53.147Z,3.70
2022-08-28T18:04:21.467Z,4.47
2022-08-28T18:09:40.919Z,3.70
2022-08-28T18:15:04.333Z,3.87
2022-08-28T18:20:28.162Z,4.33
2022-08-28T18:25:51.813Z,4.17
2022-08-28T18:31:14.388Z,3.27
2022-08-28T18:36:39.736Z,3.80
2022-08-28T18:42:01.964Z,13.80
2022-08-28T18:47:24.311Z,4.57
2022-08-28T18:52:46.844Z,4.20
2022-08-28T18:58:15.161Z,3.85
2022-08-28T19:03:35.299Z,3.45
2022-08-28T19:08:57.574Z,3.33
2022-08-28T19:14:20.449Z,2.90
2022-08-28T19:19:45.892Z,3.20
2022-08-28T19:25:17.203Z,3.40
2022-08-28T19:30:38.871Z,3.85
2022-08-28T19:36:01.776Z,15.30
2022-08-28T19:41:26.781Z,4.37
2022-08-28T19:46:50.566Z,3.90
2022-08-28T19:52:13.453Z,4.37
2022-08-28T19:57:35.766Z,4.30
2022-08-28T20:02:58.533Z,4.55
2022-08-28T20:08:21.601Z,4.23
2022-08-28T20:13:44.767Z,4.80
2022-08-28T20:19:08.249Z,4.30
2022-08-28T20:24:33.895Z,4.17
2022-08-28T20:29:56.940Z,4.42
2022-08-28T20:35:22.174Z,4.40
2022-08-28T20:40:44.817Z,4.50
2022-08-28T20:46:08.871Z,4.67
2022-08-28T20:51:48.911Z,4.07
2022-08-28T20:57:14.178Z,4.80
2022-08-28T21:02:39.839Z,4.67
2022-08-28T21:08:02.110Z,4.55
2022-08-28T21:13:25.558Z,5.05
2022-08-28T21:19:13.981Z,5.17
2022-08-28T21:24:15.015Z,5.30
2022-08-28T21:29:39.251Z,5.00
2022-08-28T21:35:02.561Z,4.80
2022-08-28T21:40:26.702Z,4.97
2022-08-28T21:45:49.103Z,5.30
2022-08-28T21:51:15.765Z,5.57
2022-08-28T21:56:40.090Z,5.17
2022-08-28T22:02:02.784Z,5.30
2022-08-28T22:07:26.023Z,5.53
2022-08-28T22:12:48.256Z,5.47
2022-08-28T22:18:10.916Z,5.60
2022-08-28T22:23:35.615Z,5.67
2022-08-28T22:28:58.004Z,5.83
2022-08-28T22:34:21.345Z,5.93
2022-08-28T22:39:44.321Z,5.27
2022-08-28T22:45:06.724Z,5.05
2022-08-28T22:50:30.134Z,5.30
2022-08-28T22:55:52.984Z,6.05
2022-08-28T23:01:20.023Z,6.10
2022-08-28T23:06:43.073Z,5.50
2022-08-28T23:12:05.329Z,6.30
2022-08-28T23:17:27.523Z,5.95
2022-08-28T23:22:56.414Z,6.60
2022-08-28T23:28:16.799Z,6.87
2022-08-28T23:33:39.429Z,7.00
2022-08-28T23:39:02.108Z,6.80
2022-08-28T23:44:25.717Z,6.30
2022-08-28T23:49:49.286Z,6.10
2022-08-28T23:55:12.882Z,6.25
